Time;durP1;ratioP1;P1;durP2;ratioP2;P2;SDS_P1;SDS_P2;PMS_P1;PMS_P2;Temp;Humidity;BMP_temperature;BMP_pressure;BME280_temperature;BME280_humidity;BME280_pressure;Samples;Min_cycle;Max_cycle;Signal;HPM_P1;HPM_P2
2022/05/09 00:00:21;;;;;;;1.45;1.00;;;;;;;31.38;20.78;98977.88;5061931;28;20028;-78
2022/05/09 00:02:48;;;;;;;0.65;0.65;;;;;;;31.49;20.95;98973.84;5059048;28;20040;-78
2022/05/09 00:05:16;;;;;;;1.08;0.77;;;;;;;31.46;20.69;98981.22;5038300;28;20036;-78
2022/05/09 00:07:43;;;;;;;1.30;0.90;;;;;;;31.26;21.33;98984.41;5056192;28;20043;-78
2022/05/09 00:10:11;;;;;;;2.28;0.73;;;;;;;31.14;21.10;98975.94;5063122;28;20028;-78
2022/05/09 00:12:37;;;;;;;1.13;0.90;;;;;;;31.22;21.30;98988.63;5061558;28;20470;-78
2022/05/09 00:15:05;;;;;;;1.40;1.02;;;;;;;31.34;20.99;98984.94;5058272;28;20032;-78
2022/05/09 00:17:31;;;;;;;1.58;0.70;;;;;;;31.17;21.00;98983.53;5038747;28;20089;-78
2022/05/09 00:19:57;;;;;;;1.25;0.95;;;;;;;31.28;21.15;98986.75;5056642;28;20041;-78
2022/05/09 00:22:24;;;;;;;0.85;0.70;;;;;;;31.04;21.43;98982.81;5058792;28;20119;-78
2022/05/09 00:24:50;;;;;;;1.73;0.93;;;;;;;30.96;21.30;98987.94;5065006;28;20111;-78
2022/05/09 00:27:16;;;;;;;1.40;1.10;;;;;;;30.59;21.93;98991.66;5063296;28;20036;-78
2022/05/09 00:29:42;;;;;;;1.02;0.80;;;;;;;30.50;22.05;98989.50;5061765;28;20064;-78
2022/05/09 00:32:09;;;;;;;4.47;1.38;;;;;;;30.21;22.52;98988.03;5061203;28;20032;-78
2022/05/09 00:34:37;;;;;;;1.05;1.00;;;;;;;30.10;22.98;98994.06;5059141;28;20516;-78
2022/05/09 00:37:04;;;;;;;1.63;1.15;;;;;;;30.41;22.26;98991.47;5045202;28;20049;-78
2022/05/09 00:39:30;;;;;;;0.70;0.70;;;;;;;30.72;21.95;98990.38;5066203;28;20115;-78
2022/05/09 00:42:10;;;;;;;0.85;0.85;;;;;;;30.78;21.42;98985.69;5064739;28;20032;-78
2022/05/09 00:44:36;;;;;;;1.05;0.95;;;;;;;30.36;22.36;98989.19;5064863;28;20055;-78
2022/05/09 00:47:02;;;;;;;1.92;1.13;;;;;;;30.16;22.74;98980.91;5061022;28;21214;-78
2022/05/09 00:49:45;;;;;;;1.40;1.15;;;;;;;30.06;22.84;98991.31;5062786;28;20032;-78
2022/05/09 00:52:24;;;;;;;1.30;1.20;;;;;;;30.23;22.29;98989.16;5060046;28;20044;-78
2022/05/09 00:55:40;;;;;;;2.33;2.00;;;;;;;30.65;21.80;98998.31;5064035;28;20858;-78
2022/05/09 00:58:40;;;;;;;1.30;1.08;;;;;;;31.06;21.08;98997.31;5057706;28;20476;-78
2022/05/09 01:01:09;;;;;;;2.28;1.33;;;;;;;30.88;21.65;99002.81;5059168;28;20043;-78
2022/05/09 01:03:47;;;;;;;0.90;0.90;;;;;;;30.42;21.96;98999.50;5060336;28;20032;-78
2022/05/09 01:06:14;;;;;;;1.45;0.95;;;;;;;30.40;22.35;98998.38;5060581;28;20056;-78
2022/05/09 01:08:40;;;;;;;1.92;0.80;;;;;;;30.72;21.96;98992.41;5062914;28;20434;-79
2022/05/09 01:11:10;;;;;;;1.42;0.90;;;;;;;30.66;22.07;98991.41;5063700;28;20043;-78
2022/05/09 01:13:42;;;;;;;1.08;0.95;;;;;;;30.63;22.12;98998.78;5065240;28;20186;-78
2022/05/09 01:16:09;;;;;;;2.85;1.13;;;;;;;30.82;21.92;98993.28;5061568;28;20546;-79
2022/05/09 01:18:36;;;;;;;1.50;1.25;;;;;;;31.15;21.25;98991.72;5061386;28;20028;-78
2022/05/09 01:21:27;;;;;;;1.65;0.95;;;;;;;31.12;21.52;99001.13;5060729;28;20131;-78
2022/05/09 01:23:53;;;;;;;1.85;1.17;;;;;;;31.03;21.92;99003.91;5065737;28;20102;-78
2022/05/09 01:26:19;;;;;;;1.17;0.90;;;;;;;30.89;22.15;99005.22;5060517;28;20120;-78
2022/05/09 01:28:46;;;;;;;1.40;1.30;;;;;;;30.49;22.93;99009.81;5060763;28;20452;-79
2022/05/09 01:31:16;;;;;;;1.92;1.48;;;;;;;30.24;23.38;99009.81;5060437;28;20029;-78
2022/05/09 01:33:46;;;;;;;2.83;2.03;;;;;;;30.38;23.22;99013.00;5063650;28;20047;-78
2022/05/09 01:36:26;;;;;;;1.45;1.30;;;;;;;30.58;22.57;99016.38;5063180;28;20060;-78
2022/05/09 01:39:12;;;;;;;1.83;1.52;;;;;;;30.93;21.99;99019.25;5062460;28;20028;-78
2022/05/09 01:41:46;;;;;;;1.17;1.08;;;;;;;30.82;22.44;99016.78;5062664;28;20501;-78
2022/05/09 01:44:14;;;;;;;1.15;1.00;;;;;;;31.03;22.06;99015.25;5061172;28;20040;-78
2022/05/09 01:49:31;;;;;;;1.45;0.90;;;;;;;30.90;22.04;99014.50;5061891;28;20048;-78
2022/05/09 01:52:06;;;;;;;1.52;1.15;;;;;;;30.74;22.19;99013.38;5061110;28;20081;-78
2022/05/09 01:54:33;;;;;;;1.60;1.02;;;;;;;30.98;21.87;99013.78;5058338;28;20574;-78
2022/05/09 01:56:59;;;;;;;0.90;0.90;;;;;;;31.06;21.87;99012.31;5062099;28;20036;-78
2022/05/09 01:59:25;;;;;;;1.20;1.10;;;;;;;31.30;21.42;99006.94;5057631;28;20047;-78
2022/05/09 02:01:56;;;;;;;2.00;1.08;;;;;;;31.40;21.69;99006.56;5061604;28;20048;-78
2022/05/09 02:04:23;;;;;;;2.17;1.17;;;;;;;31.02;21.97;99005.16;5059407;28;20032;-78
2022/05/09 02:06:49;;;;;;;1.67;1.02;;;;;;;30.09;23.18;99006.63;5057152;28;20040;-78
2022/05/09 02:09:16;;;;;;;1.17;0.95;;;;;;;29.86;23.11;99006.97;5059221;28;20097;-78
2022/05/09 02:11:42;;;;;;;1.15;1.05;;;;;;;29.83;23.27;98996.53;5058977;28;20036;-78
2022/05/09 02:14:09;;;;;;;1.10;1.00;;;;;;;29.38;23.74;99003.09;5058110;28;20040;-79
2022/05/09 02:16:35;;;;;;;1.00;1.00;;;;;;;29.06;24.43;99005.19;5062287;28;20424;-79
2022/05/09 02:19:02;;;;;;;1.13;1.02;;;;;;;29.56;23.89;99001.78;5061010;28;20060;-79
2022/05/09 02:21:28;;;;;;;1.42;1.00;;;;;;;29.98;23.00;98997.69;5058082;28;20056;-79
2022/05/09 02:23:54;;;;;;;1.45;1.25;;;;;;;30.26;22.70;98995.97;5064926;28;20401;-78
2022/05/09 02:26:20;;;;;;;0.90;0.90;;;;;;;30.38;22.79;99010.16;5067137;28;20576;-78
2022/05/09 02:28:46;;;;;;;5.50;1.20;;;;;;;30.08;22.83;99002.22;5064713;28;20105;-78
2022/05/09 02:31:12;;;;;;;1.80;1.30;;;;;;;30.10;22.90;99011.06;5068874;28;20064;-78
2022/05/09 02:33:38;;;;;;;0.95;0.93;;;;;;;30.20;22.38;99004.25;5058019;28;20513;-78
2022/05/09 02:36:04;;;;;;;2.03;1.45;;;;;;;30.17;22.40;99010.84;5061230;28;20098;-78
2022/05/09 02:38:30;;;;;;;1.20;1.10;;;;;;;29.14;23.55;99015.91;5068976;28;20033;-78
2022/05/09 02:40:57;;;;;;;1.30;1.15;;;;;;;29.22;23.66;99016.53;5065321;28;20032;-78
2022/05/09 02:43:23;;;;;;;1.30;1.20;;;;;;;29.27;23.90;99018.78;5066939;28;20082;-78
2022/05/09 02:45:50;;;;;;;2.80;1.38;;;;;;;29.51;22.99;99024.97;5063713;28;20060;-78
2022/05/09 02:48:16;;;;;;;2.13;0.90;;;;;;;29.48;23.23;99025.88;5063307;28;20374;-78
2022/05/09 02:50:42;;;;;;;1.40;1.23;;;;;;;29.26;23.30;99020.03;5067448;28;20037;-78
2022/05/09 02:53:10;;;;;;;1.25;1.15;;;;;;;29.22;23.28;99025.78;5061021;28;20043;-78
2022/05/09 02:55:37;;;;;;;1.35;1.23;;;;;;;29.48;23.37;99034.38;5065336;28;20052;-78
2022/05/09 02:58:04;;;;;;;1.58;1.05;;;;;;;29.89;22.59;99029.50;5062421;28;20513;-78
2022/05/09 03:00:31;;;;;;;2.38;1.15;;;;;;;30.18;22.17;99031.47;5062720;28;20083;-78
2022/05/09 03:05:45;;;;;;;1.13;1.00;;;;;;;29.59;22.30;99026.38;5061246;28;20505;-78
2022/05/09 03:08:13;;;;;;;1.17;1.00;;;;;;;29.20;22.80;99027.47;5064989;28;20571;-79
2022/05/09 03:10:40;;;;;;;1.50;1.40;;;;;;;28.65;23.55;99026.50;5060835;28;20032;-78
2022/05/09 03:13:08;;;;;;;1.58;1.48;;;;;;;28.70;23.87;99036.47;5056790;28;20029;-79
2022/05/09 03:15:40;;;;;;;1.30;1.10;;;;;;;29.12;22.79;99035.34;5063901;28;20056;-78
2022/05/09 03:18:07;;;;;;;0.88;0.88;;;;;;;29.41;22.48;99043.84;5057871;28;20119;-78
2022/05/09 03:20:34;;;;;;;1.40;1.27;;;;;;;29.63;22.20;99044.03;5060147;28;20030;-78
2022/05/09 03:23:02;;;;;;;1.58;1.00;;;;;;;29.58;22.84;99041.75;5062884;28;20040;-78
2022/05/09 03:25:28;;;;;;;1.42;1.25;;;;;;;29.54;22.84;99050.34;5063806;28;20998;-78
2022/05/09 03:27:54;;;;;;;2.25;1.45;;;;;;;29.71;22.08;99036.94;5066838;28;20129;-78
2022/05/09 03:30:21;;;;;;;1.73;1.05;;;;;;;29.95;21.98;99038.22;5063959;28;20045;-78
2022/05/09 03:32:47;;;;;;;1.15;1.05;;;;;;;30.11;21.89;99046.63;5062028;28;20043;-78
2022/05/09 03:35:14;;;;;;;1.25;1.13;;;;;;;30.33;21.47;99047.56;5057776;28;20032;-79
2022/05/09 03:37:41;;;;;;;2.20;1.33;;;;;;;30.13;21.81;99046.97;5062422;28;20025;-78
2022/05/09 03:40:09;;;;;;;1.17;0.88;;;;;;;29.89;22.14;99051.38;5062395;28;20032;-78
2022/05/09 03:42:35;;;;;;;1.67;1.13;;;;;;;30.27;21.85;99054.25;5046149;28;20031;-78
2022/05/09 03:45:01;;;;;;;1.33;1.20;;;;;;;30.37;21.65;99053.91;5058310;28;20028;-79
2022/05/09 03:47:27;;;;;;;1.33;1.23;;;;;;;30.23;21.72;99053.53;5061336;28;20063;-78
2022/05/09 03:49:55;;;;;;;1.45;1.35;;;;;;;30.38;21.72;99058.34;5063177;28;20127;-78
2022/05/09 03:52:22;;;;;;;1.63;1.23;;;;;;;30.68;21.42;99059.78;5065177;28;20045;-79
2022/05/09 03:54:48;;;;;;;1.17;1.10;;;;;;;30.85;21.08;99057.59;5063166;28;20441;-78
2022/05/09 03:57:14;;;;;;;1.02;0.93;;;;;;;31.11;20.96;99064.81;5064147;28;20086;-78
2022/05/09 03:59:40;;;;;;;1.88;1.13;;;;;;;31.27;20.67;99056.91;5040803;28;20154;-79
2022/05/09 04:02:06;;;;;;;1.10;1.00;;;;;;;31.37;20.56;99058.56;5060135;28;20123;-79
2022/05/09 04:04:32;;;;;;;1.38;1.27;;;;;;;31.40;20.92;99065.38;5060495;28;20033;-79
2022/05/09 04:06:58;;;;;;;1.35;1.25;;;;;;;31.14;21.02;99072.41;5062397;28;20059;-79
2022/05/09 04:09:24;;;;;;;1.50;1.25;;;;;;;30.84;21.60;99070.19;5067382;28;20146;-79
2022/05/09 04:11:50;;;;;;;1.98;1.30;;;;;;;30.83;21.50;99069.38;5065482;28;21920;-79
2022/05/09 04:16:49;;;;;;;1.20;1.10;;;;;;;31.14;21.15;99066.72;5065619;28;20055;-79
2022/05/09 04:17:03;;;;;;;1.85;1.17;;;;;;;31.15;21.21;99063.44;5061559;28;20052;-78
2022/05/09 04:19:30;;;;;;;1.20;1.10;;;;;;;30.91;21.29;99069.97;5063408;28;20494;-78
2022/05/09 04:21:57;;;;;;;1.05;0.95;;;;;;;30.38;21.93;99066.84;5068562;28;20036;-79
2022/05/09 04:24:23;;;;;;;2.03;1.25;;;;;;;30.06;22.50;99069.84;5062222;28;20390;-79
2022/05/09 04:26:49;;;;;;;0.82;0.82;;;;;;;30.42;22.52;99063.88;5069086;28;20039;-79
2022/05/09 04:29:15;;;;;;;1.40;1.30;;;;;;;31.03;22.07;99077.66;5066298;28;20025;-78
2022/05/09 04:31:41;;;;;;;1.85;1.02;;;;;;;31.45;21.79;99078.22;5067773;28;20044;-78
2022/05/09 04:34:07;;;;;;;1.50;1.35;;;;;;;31.77;21.35;99087.16;5066019;28;20033;-78
2022/05/09 04:36:35;;;;;;;1.35;1.02;;;;;;;32.03;21.22;99082.13;5060093;28;20035;-78
2022/05/09 04:39:02;;;;;;;1.30;1.10;;;;;;;32.09;21.53;99083.13;5064605;28;20378;-79
2022/05/09 04:41:28;;;;;;;2.08;1.67;;;;;;;31.86;21.52;99089.25;5069106;28;20482;-78
2022/05/09 04:43:54;;;;;;;2.13;1.00;;;;;;;31.81;22.11;99098.38;5074113;28;20024;-78
2022/05/09 04:46:20;;;;;;;1.38;1.05;;;;;;;31.67;21.63;99094.00;5058169;28;20059;-78
2022/05/09 04:48:46;;;;;;;1.67;1.55;;;;;;;31.79;21.66;99092.34;5072005;28;20995;-78
2022/05/09 04:51:12;;;;;;;1.95;1.23;;;;;;;31.81;22.36;99096.31;5064207;28;20042;-78
2022/05/09 04:53:39;;;;;;;2.70;1.45;;;;;;;31.54;22.25;99090.44;5072590;28;20516;-78
2022/05/09 04:56:05;;;;;;;1.50;1.33;;;;;;;31.49;23.03;99098.75;5073041;28;20478;-78
2022/05/09 04:58:32;;;;;;;1.30;1.20;;;;;;;31.86;22.48;99092.88;5071978;28;20055;-78
2022/05/09 05:00:58;;;;;;;1.90;1.00;;;;;;;31.98;22.10;99094.09;5073937;28;20024;-79
2022/05/09 05:03:25;;;;;;;2.60;1.30;;;;;;;31.55;22.50;99092.03;5071447;28;20036;-77
2022/05/09 05:05:52;;;;;;;1.40;1.30;;;;;;;31.44;23.13;99093.69;5074285;28;20042;-78
2022/05/09 05:08:19;;;;;;;1.85;1.70;;;;;;;31.13;23.46;99094.34;5059383;28;20431;-77
2022/05/09 05:10:45;;;;;;;1.58;1.23;;;;;;;30.83;23.44;99088.47;5074604;28;20042;-77
2022/05/09 05:13:15;;;;;;;3.35;1.20;;;;;;;30.72;23.83;99091.66;5070453;28;20048;-78
2022/05/09 05:15:41;;;;;;;2.13;1.73;;;;;;;30.89;23.76;99093.13;5069744;28;20033;-78
2022/05/09 05:18:07;;;;;;;1.90;1.33;;;;;;;30.94;23.79;99097.44;5071529;28;20036;-77
2022/05/09 05:20:33;;;;;;;1.83;1.10;;;;;;;31.18;23.79;99098.63;5072740;28;20058;-77
2022/05/09 05:22:59;;;;;;;1.50;1.30;;;;;;;31.33;23.58;99106.19;5072165;28;20041;-77
2022/05/09 05:25:28;;;;;;;2.08;1.45;;;;;;;31.51;23.77;99105.56;5053414;28;20200;-78
2022/05/09 05:27:55;;;;;;;1.70;1.35;;;;;;;31.65;23.12;99107.88;5068050;28;20074;-77
2022/05/09 05:30:23;;;;;;;1.45;1.35;;;;;;;31.79;23.63;99106.56;5068604;28;20086;-78
2022/05/09 05:32:50;;;;;;;1.10;1.00;;;;;;;31.93;23.67;99112.50;5069669;28;20032;-77
2022/05/09 05:35:23;;;;;;;1.88;1.38;;;;;;;32.22;23.95;99108.59;5068672;28;20036;-78
2022/05/09 05:37:49;;;;;;;1.15;1.05;;;;;;;32.62;23.03;99109.47;5071587;28;20024;-78
2022/05/09 05:40:17;;;;;;;1.20;1.10;;;;;;;32.93;23.11;99110.16;5072199;28;20036;-77
2022/05/09 05:42:44;;;;;;;1.35;1.05;;;;;;;33.60;22.55;99113.00;5066627;28;20033;-77
2022/05/09 05:45:13;;;;;;;1.58;0.98;;;;;;;33.87;21.63;99104.44;5069183;28;20039;-77
2022/05/09 05:47:39;;;;;;;0.80;0.80;;;;;;;34.23;21.66;99112.16;5068322;28;20033;-77
2022/05/09 05:50:07;;;;;;;1.05;0.93;;;;;;;34.54;21.43;99114.78;5065897;28;20028;-78
2022/05/09 05:52:33;;;;;;;2.35;1.08;;;;;;;34.74;21.23;99118.63;5068221;28;20531;-78
2022/05/09 05:54:59;;;;;;;2.25;1.15;;;;;;;34.94;20.91;99112.34;5067477;28;20084;-78
2022/05/09 05:57:28;;;;;;;1.25;0.85;;;;;;;35.04;20.68;99118.81;5065030;28;20024;-79
2022/05/09 06:00:02;;;;;;;1.48;1.10;;;;;;;35.01;20.73;99119.78;5065567;28;20039;-79
2022/05/09 06:02:29;;;;;;;1.55;1.25;;;;;;;35.06;21.35;99119.13;5066584;28;20032;-78
2022/05/09 06:04:55;;;;;;;0.95;0.90;;;;;;;35.22;20.95;99124.41;5070196;28;20033;-78
2022/05/09 06:07:22;;;;;;;0.82;0.75;;;;;;;35.20;21.12;99122.03;5069727;28;20032;-78
2022/05/09 06:09:49;;;;;;;0.73;0.73;;;;;;;35.27;20.84;99121.69;5070421;28;20113;-78
2022/05/09 06:12:19;;;;;;;1.08;0.80;;;;;;;35.39;20.68;99119.84;5071353;28;20036;-78
2022/05/09 06:15:24;;;;;;;0.98;0.82;;;;;;;35.15;20.67;99128.41;5031580;28;1083118;-79
2022/05/09 06:17:33;;;;;;;1.17;0.85;;;;;;;35.17;20.32;99125.09;5069799;28;20040;-79
2022/05/09 06:19:59;;;;;;;1.50;0.77;;;;;;;35.25;19.61;99123.44;5072189;28;20071;-78
2022/05/09 06:22:26;;;;;;;1.20;1.10;;;;;;;35.08;19.29;99119.44;5071201;28;20036;-78
2022/05/09 06:24:58;;;;;;;1.75;1.05;;;;;;;34.80;20.30;99121.59;5073176;28;20493;-78
2022/05/09 06:27:24;;;;;;;0.98;0.93;;;;;;;34.95;20.20;99127.41;5072473;28;20028;-79
2022/05/09 06:29:50;;;;;;;0.85;0.70;;;;;;;35.12;20.08;99132.25;5072110;28;20025;-78
2022/05/09 06:32:18;;;;;;;1.13;1.02;;;;;;;35.13;19.08;99130.16;5066788;28;20102;-78
2022/05/09 06:34:45;;;;;;;0.70;0.70;;;;;;;34.17;20.34;99128.31;5071431;28;20111;-79
2022/05/09 06:37:11;;;;;;;1.00;0.63;;;;;;;33.77;20.86;99127.72;5065512;28;20036;-79
2022/05/09 06:39:37;;;;;;;1.42;0.80;;;;;;;34.18;20.72;99135.59;5072783;28;20094;-79
2022/05/09 06:42:04;;;;;;;1.75;0.70;;;;;;;34.38;20.73;99138.72;5071329;28;20028;-79
2022/05/09 06:44:30;;;;;;;1.58;0.77;;;;;;;34.23;20.25;99137.03;5072814;28;20390;-78
2022/05/09 06:46:56;;;;;;;0.50;0.50;;;;;;;34.40;20.36;99133.31;5069856;28;20040;-78
2022/05/09 06:49:23;;;;;;;0.80;0.80;;;;;;;34.73;20.00;99142.72;5071979;28;20032;-78
2022/05/09 06:51:49;;;;;;;0.82;0.65;;;;;;;35.01;20.14;99134.03;5071157;28;20116;-78
2022/05/09 06:54:18;;;;;;;1.38;0.95;;;;;;;35.26;19.32;99136.44;5071053;28;20041;-78
2022/05/09 06:56:44;;;;;;;1.50;0.85;;;;;;;34.83;19.64;99146.34;5071157;28;20085;-79
2022/05/09 06:59:10;;;;;;;1.05;0.95;;;;;;;34.79;20.24;99145.72;5072728;28;20059;-78
2022/05/09 07:01:37;;;;;;;1.55;0.85;;;;;;;34.98;19.89;99149.28;5069716;28;20033;-79
2022/05/09 07:04:04;;;;;;;1.27;0.80;;;;;;;35.20;19.33;99146.94;5072020;28;20051;-78
2022/05/09 07:06:30;;;;;;;1.65;0.70;;;;;;;35.06;19.94;99147.66;5070146;28;20047;-78
2022/05/09 07:08:56;;;;;;;1.23;0.65;;;;;;;35.17;19.23;99151.56;5072311;28;20115;-78
2022/05/09 07:11:22;;;;;;;1.25;0.82;;;;;;;35.00;20.01;99149.59;5070653;28;20032;-78
2022/05/09 07:13:49;;;;;;;1.20;1.08;;;;;;;34.74;19.95;99152.88;5070759;28;20053;-78
2022/05/09 07:16:15;;;;;;;0.82;0.80;;;;;;;34.75;20.76;99147.97;5069032;28;20414;-78
2022/05/09 07:18:42;;;;;;;1.05;0.60;;;;;;;34.97;20.68;99144.84;5051600;28;20093;-78
2022/05/09 07:21:09;;;;;;;2.22;0.57;;;;;;;35.28;19.69;99148.19;5068150;28;20028;-79
2022/05/09 07:23:36;;;;;;;2.28;0.68;;;;;;;35.64;19.29;99145.06;5070665;28;20044;-78
2022/05/09 07:26:03;;;;;;;1.60;0.88;;;;;;;35.72;18.68;99146.28;5071381;28;20032;-79
2022/05/09 07:28:30;;;;;;;1.73;0.93;;;;;;;35.24;19.21;99154.06;5072080;28;20029;-78
2022/05/09 07:30:58;;;;;;;3.10;1.10;;;;;;;34.95;19.06;99156.75;5070323;28;20033;-78
2022/05/09 07:33:25;;;;;;;1.38;1.23;;;;;;;34.13;19.38;99146.84;5071999;28;20032;-78
2022/05/09 07:35:51;;;;;;;0.80;0.70;;;;;;;34.09;20.00;99141.31;5071157;28;20359;-79
2022/05/09 07:38:17;;;;;;;1.52;0.95;;;;;;;34.33;19.00;99153.59;5071206;28;20561;-79
2022/05/09 07:40:45;;;;;;;0.80;0.80;;;;;;;34.32;20.15;99146.34;5072308;28;20041;-78
2022/05/09 07:43:17;;;;;;;1.05;0.95;;;;;;;33.48;20.83;99150.94;5066660;28;20033;-79
2022/05/09 07:45:44;;;;;;;1.17;0.85;;;;;;;33.74;21.53;99148.63;5069521;28;20037;-79
2022/05/09 07:48:11;;;;;;;2.45;1.10;;;;;;;33.80;21.36;99143.84;5052174;28;20024;-78
2022/05/09 07:50:38;;;;;;;2.47;1.00;;;;;;;33.46;19.64;99144.94;5071692;28;20063;-79
2022/05/09 07:53:13;;;;;;;1.00;0.90;;;;;;;32.77;20.64;99146.66;5064912;28;20750;-78
2022/05/09 07:55:41;;;;;;;1.92;1.30;;;;;;;30.83;22.75;99148.78;5067040;28;20116;-79
2022/05/09 07:58:09;;;;;;;1.27;0.90;;;;;;;31.05;20.64;99152.56;5070702;28;20031;-79
2022/05/09 08:00:35;;;;;;;1.67;1.05;;;;;;;30.05;21.70;99147.56;5068969;28;20025;-78
2022/05/09 08:03:02;;;;;;;1.45;0.90;;;;;;;31.24;21.17;99151.50;5071759;28;20032;-78
2022/05/09 08:05:28;;;;;;;2.83;1.00;;;;;;;31.80;21.34;99148.72;5070760;28;20040;-78
2022/05/09 08:07:55;;;;;;;1.20;0.88;;;;;;;30.87;22.42;99154.38;5066376;28;20029;-79
2022/05/09 08:10:21;;;;;;;2.67;1.45;;;;;;;29.15;24.22;99155.28;5070994;28;20103;-79
2022/05/09 08:12:48;;;;;;;2.90;1.83;;;;;;;27.38;26.04;99169.59;5069561;28;20036;-79
2022/05/09 08:15:16;;;;;;;2.60;1.80;;;;;;;27.09;25.77;99160.81;5069993;28;20078;-78
2022/05/09 08:17:46;;;;;;;4.18;1.73;;;;;;;27.69;25.09;99168.19;5066292;28;20033;-78
2022/05/09 08:20:13;;;;;;;1.85;1.30;;;;;;;29.83;22.37;99161.56;5070546;28;20413;-79
2022/05/09 08:22:40;;;;;;;2.63;1.38;;;;;;;31.01;21.61;99163.22;5070420;28;20115;-78
2022/05/09 08:25:07;;;;;;;1.20;1.10;;;;;;;31.62;21.06;99159.13;5071853;28;20032;-78
2022/05/09 08:27:34;;;;;;;1.48;1.10;;;;;;;32.27;21.39;99167.69;5070488;28;20043;-78
2022/05/09 08:30:01;;;;;;;1.40;1.17;;;;;;;32.10;20.57;99167.09;5070151;28;20033;-78
2022/05/09 08:32:27;;;;;;;0.90;0.90;;;;;;;31.69;20.29;99154.00;5070369;28;20505;-79
2022/05/09 08:34:55;;;;;;;2.58;1.15;;;;;;;30.45;21.93;99160.16;5070611;28;20036;-79
2022/05/09 08:37:21;;;;;;;2.63;1.33;;;;;;;30.64;22.12;99164.78;5070172;28;20029;-79
2022/05/09 08:39:48;;;;;;;2.17;1.00;;;;;;;31.23;21.35;99155.56;5064819;28;20036;-79
2022/05/09 08:42:25;;;;;;;1.20;0.80;;;;;;;32.43;19.48;99165.44;5068322;28;20055;-78
2022/05/09 08:45:21;;;;;;;2.80;0.90;;;;;;;31.59;20.34;99166.53;5068343;28;20529;-79
2022/05/09 08:48:14;;;;;;;4.65;1.10;;;;;;;31.57;20.68;99160.53;5068643;28;20116;-79
2022/05/09 08:50:57;;;;;;;1.77;1.13;;;;;;;30.70;20.29;99163.00;5065875;28;20025;-79
2022/05/09 08:53:26;;;;;;;1.95;0.90;;;;;;;31.17;20.41;99165.13;5064324;28;20040;-79
2022/05/09 08:55:55;;;;;;;1.70;1.10;;;;;;;32.00;19.87;99165.44;5071408;28;20494;-79
2022/05/09 08:58:26;;;;;;;3.10;0.93;;;;;;;32.94;19.17;99165.81;5072347;28;20086;-79
2022/05/09 09:00:54;;;;;;;1.70;0.77;;;;;;;32.77;19.94;99164.50;5073728;28;20406;-79
2022/05/09 09:03:39;;;;;;;2.58;1.20;;;;;;;31.83;20.23;99175.41;5072432;28;20036;-79
2022/05/09 09:06:33;;;;;;;2.65;1.67;;;;;;;30.58;21.39;99172.28;5072293;28;20115;-79
2022/05/09 09:09:04;;;;;;;1.73;1.20;;;;;;;30.88;22.39;99170.16;5072850;28;20032;-79
2022/05/09 09:11:46;;;;;;;1.40;1.30;;;;;;;31.52;20.82;99165.97;5073585;28;20111;-79
2022/05/09 09:14:22;;;;;;;3.35;1.02;;;;;;;31.83;19.76;99176.22;5072246;28;20543;-79
2022/05/09 09:17:17;;;;;;;0.88;0.85;;;;;;;31.29;20.60;99167.94;5072148;28;20037;-78
2022/05/09 09:19:57;;;;;;;1.67;1.15;;;;;;;30.95;20.27;99175.63;5073018;28;20117;-79
2022/05/09 09:22:39;;;;;;;2.95;1.80;;;;;;;28.95;22.53;99189.31;5071014;28;20028;-79
2022/05/09 09:25:35;;;;;;;3.67;2.10;;;;;;;27.75;23.89;99182.63;5073629;28;20028;-78
2022/05/09 09:28:18;;;;;;;3.05;1.85;;;;;;;27.17;24.19;99190.47;5064062;28;20035;-78
2022/05/09 09:30:46;;;;;;;6.43;2.03;;;;;;;27.53;24.05;99196.31;5072223;28;20025;-78
2022/05/09 09:33:15;;;;;;;4.18;1.75;;;;;;;29.47;21.97;99177.91;5051067;28;20071;-79
2022/05/09 09:35:53;;;;;;;3.70;1.80;;;;;;;29.80;21.61;99185.09;5074025;28;20048;-78
2022/05/09 09:38:33;;;;;;;2.72;1.35;;;;;;;29.63;21.22;99185.56;5073550;28;20021;-78
2022/05/09 09:41:29;;;;;;;1.37;1.27;;;;;;;29.46;21.41;99181.16;5073484;28;20032;-78
2022/05/09 09:44:19;;;;;;;1.98;1.10;;;;;;;30.23;20.78;99178.19;5072811;28;20449;-78
2022/05/09 09:47:00;;;;;;;4.27;2.20;;;;;;;29.83;20.42;99184.19;5072248;28;20033;-79
2022/05/09 09:49:26;;;;;;;2.00;0.90;;;;;;;30.78;20.33;99178.50;5072663;28;20116;-79
2022/05/09 09:51:52;;;;;;;4.13;1.20;;;;;;;31.68;19.43;99180.00;5070507;28;20044;-79
2022/05/09 09:54:23;;;;;;;1.63;1.33;;;;;;;31.92;18.83;99181.16;5071104;28;20047;-79
2022/05/09 09:56:49;;;;;;;1.27;0.90;;;;;;;32.83;18.39;99185.41;5072336;28;20029;-79
2022/05/09 09:59:18;;;;;;;1.83;0.85;;;;;;;33.14;17.27;99174.00;5053611;28;20035;-79
2022/05/09 10:02:02;;;;;;;1.00;0.70;;;;;;;33.99;17.45;99166.16;5072200;28;20032;-79
2022/05/09 10:04:29;;;;;;;0.60;0.60;;;;;;;34.41;16.81;99166.28;5070480;28;20025;-79
2022/05/09 10:07:05;;;;;;;2.17;0.65;;;;;;;34.78;17.00;99161.25;5069824;28;20036;-78
2022/05/09 10:10:05;;;;;;;1.23;0.60;;;;;;;35.03;17.11;99162.94;5072779;28;20062;-79
2022/05/09 10:12:32;;;;;;;1.42;0.70;;;;;;;35.24;16.71;99156.91;5070202;28;20074;-79
2022/05/09 10:15:00;;;;;;;0.60;0.60;;;;;;;35.74;16.69;99155.16;5072589;28;20045;-79
2022/05/09 10:17:26;;;;;;;1.33;0.60;;;;;;;36.16;16.54;99160.66;5068877;28;20029;-79
2022/05/09 10:19:54;;;;;;;2.22;0.70;;;;;;;35.77;15.48;99157.03;5073236;28;20099;-79
2022/05/09 10:25:30;;;;;;;0.77;0.50;;;;;;;35.95;15.73;99158.94;5070558;28;20047;-79
2022/05/09 10:28:14;;;;;;;1.37;0.70;;;;;;;32.72;16.47;99154.53;5049840;28;20029;-79
2022/05/09 10:30:49;;;;;;;0.95;0.63;;;;;;;33.04;17.46;99153.25;5073403;28;20036;-79
2022/05/09 10:33:48;;;;;;;1.95;0.60;;;;;;;33.56;17.38;99145.78;5053293;28;20028;-79
2022/05/09 10:36:23;;;;;;;0.85;0.57;;;;;;;34.10;16.24;99150.69;5071035;28;20055;-79
2022/05/09 10:39:11;;;;;;;1.77;0.57;;;;;;;34.98;16.15;99146.44;5072162;28;20119;-79
2022/05/09 10:41:52;;;;;;;0.50;0.50;;;;;;;32.91;16.33;99146.84;5068461;28;20063;-79
2022/05/09 10:44:28;;;;;;;0.50;0.40;;;;;;;33.15;16.88;99149.94;5072116;28;20056;-79
2022/05/09 10:47:05;;;;;;;0.85;0.70;;;;;;;33.61;16.68;99148.00;5066447;28;20048;-79
2022/05/09 10:49:51;;;;;;;1.50;0.88;;;;;;;31.68;17.92;99152.41;5072273;28;20036;-79
2022/05/09 10:52:28;;;;;;;0.50;0.50;;;;;;;32.31;18.40;99149.25;5069839;28;20036;-79
2022/05/09 10:55:02;;;;;;;1.10;0.50;;;;;;;32.16;18.45;99151.03;5070938;28;20063;-79
2022/05/09 10:57:50;;;;;;;1.13;0.80;;;;;;;31.02;18.77;99149.81;5051152;28;20093;-79
2022/05/09 11:00:23;;;;;;;1.67;0.88;;;;;;;31.58;19.33;99142.22;5069774;28;20036;-79
2022/05/09 11:03:06;;;;;;;1.60;1.10;;;;;;;30.98;19.14;99138.59;5069766;28;20550;-79
2022/05/09 11:06:19;;;;;;;2.58;1.10;;;;;;;31.08;18.26;99134.63;5072275;28;20036;-79
2022/05/09 11:08:57;;;;;;;2.05;0.90;;;;;;;30.25;19.41;99128.34;5065311;28;20044;-79
2022/05/09 11:11:49;;;;;;;2.88;1.10;;;;;;;31.12;19.98;99137.31;5069937;28;20039;-79
2022/05/09 11:14:46;;;;;;;2.55;0.90;;;;;;;32.12;18.49;99129.69;5070547;28;20040;-79
2022/05/09 11:17:23;;;;;;;3.00;0.80;;;;;;;31.94;17.70;99139.66;5070395;28;20043;-79
2022/05/09 11:20:24;;;;;;;1.45;0.80;;;;;;;33.15;17.37;99127.97;5072471;28;20043;-79
2022/05/09 11:23:05;;;;;;;1.95;0.80;;;;;;;33.02;16.61;99129.38;5070004;28;20074;-79
2022/05/09 11:26:00;;;;;;;0.95;0.50;;;;;;;34.36;16.40;99124.13;5071650;28;20025;-79
2022/05/09 11:28:45;;;;;;;1.77;0.60;;;;;;;34.67;15.56;99116.13;5067959;28;20044;-79
2022/05/09 11:31:39;;;;;;;1.60;0.70;;;;;;;33.10;16.03;99119.25;5070310;28;20459;-79
2022/05/09 11:34:42;;;;;;;0.73;0.63;;;;;;;33.54;16.80;99111.28;5071427;28;20133;-78
2022/05/09 11:37:38;;;;;;;1.08;0.80;;;;;;;32.78;16.67;99109.19;5069323;28;20398;-79
2022/05/09 11:40:30;;;;;;;1.38;0.90;;;;;;;32.40;16.44;99109.47;5068991;28;20037;-79
2022/05/09 11:43:28;;;;;;;1.77;0.80;;;;;;;34.02;16.42;99099.66;5070906;28;20056;-79
2022/05/09 11:46:24;;;;;;;2.75;0.80;;;;;;;32.82;17.16;99100.50;5065726;28;20075;-79
2022/05/09 11:49:27;;;;;;;2.97;0.77;;;;;;;32.23;16.74;99102.44;5064769;28;20025;-79
2022/05/09 11:51:57;;;;;;;1.48;0.90;;;;;;;32.38;17.03;99097.00;5068504;28;20442;-79
2022/05/09 11:54:37;;;;;;;0.80;0.80;;;;;;;33.13;16.83;99090.66;5068848;28;20029;-79
2022/05/09 11:57:09;;;;;;;2.13;0.90;;;;;;;32.39;17.66;99088.00;5068150;28;20355;-79
2022/05/09 11:59:36;;;;;;;1.58;0.80;;;;;;;31.38;17.72;99101.97;5062583;28;20047;-79
2022/05/09 12:02:32;;;;;;;1.45;1.02;;;;;;;30.52;18.43;99097.56;5070206;28;20047;-79